Time;durP1;ratioP1;P1;durP2;ratioP2;P2;SDS_P1;SDS_P2;PMS_P1;PMS_P2;Temp;Humidity;BMP_temperature;BMP_pressure;BME280_temperature;BME280_humidity;BME280_pressure;Samples;Min_cycle;Max_cycle;Signal;HPM_P1;HPM_P2
2022/07/28 00:00:47;;;;;;;6.03;4.53;;;27.70;68.60;;;;;;5086790;28;20186;-77
2022/07/28 00:03:16;;;;;;;8.18;4.70;;;27.70;68.60;;;;;;5075613;28;20190;-76
2022/07/28 00:05:44;;;;;;;6.22;4.47;;;27.70;68.60;;;;;;5084970;28;20217;-75
2022/07/28 00:08:12;;;;;;;10.55;4.80;;;27.70;68.30;;;;;;5073444;28;20194;-75
2022/07/28 00:10:41;;;;;;;7.65;4.20;;;27.70;68.40;;;;;;5083077;28;20236;-78
2022/07/28 00:13:11;;;;;;;6.85;4.20;;;27.70;68.20;;;;;;5081035;28;20190;-76
2022/07/28 00:15:39;;;;;;;7.57;4.57;;;27.60;68.30;;;;;;5076952;28;20218;-75
2022/07/28 00:18:08;;;;;;;6.70;4.05;;;27.60;68.30;;;;;;5070609;28;20186;-76
2022/07/28 00:20:36;;;;;;;6.28;4.13;;;27.60;68.40;;;;;;5070879;28;20201;-74
2022/07/28 00:23:05;;;;;;;7.03;4.57;;;27.60;68.40;;;;;;5077669;28;20655;-74
2022/07/28 00:25:33;;;;;;;7.53;3.75;;;27.60;68.40;;;;;;5074209;28;20201;-74
2022/07/28 00:28:01;;;;;;;6.15;4.35;;;27.50;68.50;;;;;;5076954;28;20236;-75
2022/07/28 00:30:31;;;;;;;9.60;3.97;;;27.50;68.20;;;;;;5074947;28;20643;-78
2022/07/28 00:33:00;;;;;;;6.63;4.53;;;27.50;68.30;;;;;;5080436;28;20198;-77
2022/07/28 00:35:28;;;;;;;11.18;4.13;;;27.50;68.50;;;;;;5065998;28;20221;-74
2022/07/28 00:37:59;;;;;;;6.13;4.63;;;27.50;68.40;;;;;;5059384;28;20244;-75
2022/07/28 00:43:10;;;;;;;9.38;4.70;;;27.40;68.40;;;;;;5075214;28;20565;-75
2022/07/28 00:45:40;;;;;;;6.00;4.28;;;27.40;68.50;;;;;;5078089;28;20201;-75
2022/07/28 00:48:09;;;;;;;7.07;4.10;;;27.40;68.70;;;;;;5068452;28;21112;-74
2022/07/28 00:50:39;;;;;;;8.95;4.20;;;27.40;68.60;;;;;;5071236;28;20198;-75
2022/07/28 00:53:08;;;;;;;9.48;4.13;;;27.40;68.60;;;;;;5077185;28;20187;-73
2022/07/28 00:55:38;;;;;;;7.90;4.15;;;27.30;68.50;;;;;;5073892;28;20229;-75
2022/07/28 00:58:27;;;;;;;7.05;3.97;;;27.30;68.60;;;;;;5073701;28;20198;-76
2022/07/28 01:00:57;;;;;;;6.32;4.22;;;27.30;68.80;;;;;;5073446;28;20206;-75
2022/07/28 01:03:26;;;;;;;6.25;3.90;;;27.30;68.70;;;;;;5072466;28;20186;-75
2022/07/28 01:06:03;;;;;;;6.88;4.50;;;27.30;68.60;;;;;;5075846;28;20289;-74
2022/07/28 01:08:41;;;;;;;8.38;3.90;;;27.20;68.70;;;;;;5078294;28;20252;-76
2022/07/28 01:11:15;;;;;;;7.60;3.63;;;27.20;68.90;;;;;;5082215;28;20201;-74
2022/07/28 01:14:02;;;;;;;6.78;4.10;;;27.20;68.80;;;;;;5077936;28;20193;-75
2022/07/28 01:16:32;;;;;;;5.50;3.65;;;27.20;69.00;;;;;;5075647;28;20202;-74
2022/07/28 01:19:08;;;;;;;5.07;3.60;;;27.20;69.10;;;;;;5075496;28;20205;-78
2022/07/28 01:21:40;;;;;;;6.78;3.80;;;27.10;69.10;;;;;;5072274;28;20551;-76
2022/07/28 01:24:14;;;;;;;5.47;3.78;;;27.10;69.10;;;;;;5077520;28;20193;-76
2022/07/28 01:26:54;;;;;;;7.32;3.70;;;27.10;69.00;;;;;;5080050;28;20772;-74
2022/07/28 01:29:46;;;;;;;8.73;3.80;;;27.10;69.10;;;;;;5071627;28;20295;-78
2022/07/28 01:32:19;;;;;;;8.82;3.63;;;27.10;68.90;;;;;;5080243;28;20300;-75
2022/07/28 01:34:52;;;;;;;6.97;3.50;;;27.10;68.80;;;;;;5072572;28;20205;-75
2022/07/28 01:37:25;;;;;;;8.07;3.50;;;27.10;68.80;;;;;;5075242;28;20201;-75
2022/07/28 01:39:58;;;;;;;8.45;4.00;;;27.10;68.80;;;;;;5075596;28;20888;-76
2022/07/28 01:42:31;;;;;;;6.32;3.55;;;27.10;68.80;;;;;;5074471;28;20217;-76
2022/07/28 01:45:02;;;;;;;4.60;3.30;;;27.10;68.80;;;;;;5073974;28;20198;-74
2022/07/28 01:47:34;;;;;;;6.07;3.28;;;27.10;68.80;;;;;;5078184;28;20186;-75
2022/07/28 01:50:06;;;;;;;5.57;4.32;;;27.10;68.80;;;;;;5084327;28;20193;-77
2022/07/28 01:52:36;;;;;;;5.72;4.00;;;27.10;69.10;;;;;;5068095;28;20213;-73
2022/07/28 01:55:06;;;;;;;5.10;3.45;;;27.10;69.20;;;;;;5078210;28;20217;-75
2022/07/28 01:57:36;;;;;;;5.25;3.60;;;27.10;69.00;;;;;;5082677;28;20186;-72
2022/07/28 02:00:11;;;;;;;4.82;3.33;;;27.10;69.10;;;;;;5076818;28;20224;-75
2022/07/28 02:02:43;;;;;;;5.32;3.75;;;27.00;69.00;;;;;;5088168;28;20192;-74
2022/07/28 02:05:14;;;;;;;6.80;3.55;;;27.10;69.00;;;;;;5079303;28;22622;-76
2022/07/28 02:07:48;;;;;;;7.22;3.75;;;27.00;68.90;;;;;;5078729;28;20205;-75
2022/07/28 02:10:18;;;;;;;8.02;3.63;;;27.00;69.50;;;;;;5077337;28;20243;-74
2022/07/28 02:12:49;;;;;;;5.18;3.25;;;27.00;69.20;;;;;;5085688;28;20189;-74
2022/07/28 02:15:19;;;;;;;5.30;3.38;;;27.00;69.20;;;;;;5088823;28;20224;-75
2022/07/28 02:17:51;;;;;;;5.40;3.20;;;27.00;69.20;;;;;;5085885;28;20285;-74
2022/07/28 02:20:21;;;;;;;7.35;3.65;;;27.00;69.20;;;;;;5085446;28;20837;-75
2022/07/28 02:22:52;;;;;;;7.13;3.38;;;27.00;69.10;;;;;;5080706;28;20182;-77
2022/07/28 02:25:21;;;;;;;7.65;3.55;;;27.00;69.10;;;;;;5087102;28;20196;-76
2022/07/28 02:27:58;;;;;;;7.22;3.60;;;27.00;69.10;;;;;;5087343;28;20186;-76
2022/07/28 02:30:34;;;;;;;4.88;3.08;;;27.00;69.10;;;;;;5077953;28;20281;-76
2022/07/28 02:33:08;;;;;;;5.88;3.60;;;27.00;69.10;;;;;;5083622;28;20708;-75
2022/07/28 02:35:43;;;;;;;5.18;3.38;;;27.00;69.00;;;;;;5080947;28;20296;-75
2022/07/28 02:38:15;;;;;;;5.57;3.08;;;27.00;68.80;;;;;;5067809;28;20189;-77
2022/07/28 02:40:44;;;;;;;6.97;3.72;;;27.00;68.80;;;;;;5084293;28;20380;-79
2022/07/28 02:43:16;;;;;;;5.43;2.97;;;27.00;69.00;;;;;;5090202;28;20194;-78
2022/07/28 02:45:51;;;;;;;3.95;2.92;;;27.00;69.00;;;;;;5087707;28;20182;-78
2022/07/28 02:48:25;;;;;;;5.70;2.95;;;26.90;68.80;;;;;;5087502;28;20189;-78
2022/07/28 02:50:56;;;;;;;5.60;3.20;;;26.90;69.00;;;;;;5081364;28;20484;-76
2022/07/28 02:53:26;;;;;;;4.05;2.95;;;26.90;69.00;;;;;;5082282;28;20187;-77
2022/07/28 02:55:55;;;;;;;5.20;3.05;;;26.90;69.10;;;;;;5082970;28;20276;-75
2022/07/28 02:58:26;;;;;;;5.20;3.22;;;26.90;69.00;;;;;;5080797;28;20781;-75
2022/07/28 03:00:56;;;;;;;3.88;2.80;;;26.90;69.00;;;;;;5083535;28;20208;-74
2022/07/28 03:03:27;;;;;;;4.05;2.70;;;26.80;69.30;;;;;;5085265;28;20194;-78
2022/07/28 03:05:56;;;;;;;3.35;2.55;;;26.80;69.10;;;;;;5085919;28;20214;-77
2022/07/28 03:08:24;;;;;;;6.03;3.58;;;26.80;69.00;;;;;;5080739;28;20754;-77
2022/07/28 03:11:07;;;;;;;6.28;3.20;;;26.80;69.20;;;;;;5075100;28;20742;-74
2022/07/28 03:13:36;;;;;;;3.92;2.50;;;26.80;69.10;;;;;;5088187;28;20643;-77
2022/07/28 03:16:06;;;;;;;4.55;2.97;;;26.80;69.00;;;;;;5082450;28;20305;-76
2022/07/28 03:18:36;;;;;;;4.75;3.10;;;26.80;69.20;;;;;;5082730;28;20187;-77
2022/07/28 03:21:05;;;;;;;4.22;3.03;;;26.80;69.10;;;;;;5079548;28;20197;-76
2022/07/28 03:23:38;;;;;;;3.90;2.60;;;26.80;69.40;;;;;;5087108;28;20182;-77
2022/07/28 03:26:12;;;;;;;6.55;2.90;;;26.80;69.20;;;;;;5091438;28;20273;-77
2022/07/28 03:41:08;;;;;;;4.22;2.88;;;26.70;68.50;;;;;;5107416;27;20556;-76
2022/07/28 03:43:37;;;;;;;4.03;2.80;;;26.70;69.90;;;;;;5106322;28;20194;-78
2022/07/28 03:46:07;;;;;;;3.95;2.67;;;26.70;69.80;;;;;;5096586;28;20185;-76
2022/07/28 03:48:40;;;;;;;6.65;3.22;;;26.70;69.80;;;;;;5107818;28;20211;-76
2022/07/28 03:51:09;;;;;;;4.65;2.78;;;26.70;69.70;;;;;;5108494;28;20743;-78
2022/07/28 03:53:38;;;;;;;8.73;3.40;;;26.70;69.60;;;;;;5105420;28;20203;-75
2022/07/28 03:56:08;;;;;;;4.50;2.83;;;26.70;69.50;;;;;;5093403;28;20208;-75
2022/07/28 03:58:36;;;;;;;11.75;3.60;;;26.70;69.40;;;;;;5098389;28;20189;-77
2022/07/28 04:01:04;;;;;;;4.20;2.97;;;26.70;69.40;;;;;;5105411;28;20201;-77
2022/07/28 04:03:33;;;;;;;3.95;2.90;;;26.70;69.50;;;;;;5099063;28;20689;-75
2022/07/28 04:06:11;;;;;;;6.78;3.80;;;26.70;69.40;;;;;;5094591;28;20187;-74
2022/07/28 04:08:40;;;;;;;5.18;3.33;;;26.70;69.20;;;;;;5091028;28;20189;-75
2022/07/28 04:11:09;;;;;;;4.65;3.10;;;26.70;69.60;;;;;;5094929;28;20208;-77
2022/07/28 04:13:38;;;;;;;4.35;2.92;;;26.70;69.50;;;;;;5088775;28;20370;-75
2022/07/28 04:16:07;;;;;;;5.65;3.20;;;26.60;69.50;;;;;;5110768;28;20204;-76
2022/07/28 04:18:35;;;;;;;4.90;3.08;;;26.60;69.40;;;;;;5105656;28;20182;-77
2022/07/28 04:21:07;;;;;;;5.70;2.95;;;26.70;69.30;;;;;;5119910;28;20192;-75
2022/07/28 04:23:35;;;;;;;5.15;3.08;;;26.70;69.40;;;;;;5108825;28;20228;-75
2022/07/28 04:26:04;;;;;;;4.72;3.03;;;26.70;69.20;;;;;;5102304;28;20305;-79
2022/07/28 04:28:34;;;;;;;5.28;3.22;;;26.70;69.20;;;;;;5098191;28;20218;-77
2022/07/28 04:31:02;;;;;;;6.88;3.35;;;26.70;69.20;;;;;;5098673;28;20207;-74
2022/07/28 04:33:31;;;;;;;5.53;3.00;;;26.70;69.20;;;;;;5089304;28;20958;-76
2022/07/28 04:36:00;;;;;;;4.93;3.28;;;26.70;69.10;;;;;;5092959;28;20197;-76
2022/07/28 04:38:29;;;;;;;5.00;2.97;;;26.80;69.10;;;;;;5093966;28;20201;-76
2022/07/28 04:40:58;;;;;;;5.65;2.97;;;26.80;69.00;;;;;;5088234;28;20226;-77
2022/07/28 04:43:26;;;;;;;5.30;3.05;;;26.80;69.10;;;;;;5098621;28;20197;-76
2022/07/28 04:45:56;;;;;;;4.57;3.22;;;26.90;69.00;;;;;;5087703;28;20206;-76
2022/07/28 04:48:24;;;;;;;5.38;3.28;;;26.90;69.00;;;;;;5084499;28;20190;-76
2022/07/28 04:50:53;;;;;;;4.68;2.78;;;26.90;68.80;;;;;;5085636;28;20636;-77
2022/07/28 04:53:22;;;;;;;6.10;3.13;;;27.00;68.80;;;;;;5084226;28;20197;-76
2022/07/28 04:55:51;;;;;;;3.83;2.65;;;27.00;68.60;;;;;;5076963;28;20644;-78
2022/07/28 04:58:24;;;;;;;3.78;2.78;;;27.00;68.50;;;;;;5078960;28;20576;-76
2022/07/28 05:00:55;;;;;;;4.55;3.03;;;27.10;68.40;;;;;;5092773;28;20244;-79
2022/07/28 05:03:23;;;;;;;6.88;2.92;;;27.10;68.40;;;;;;5085752;28;20197;-76
2022/07/28 05:05:52;;;;;;;4.38;3.10;;;27.20;68.30;;;;;;5077117;28;20190;-77
2022/07/28 05:08:22;;;;;;;4.93;2.97;;;27.20;68.20;;;;;;5091883;28;20190;-78
2022/07/28 05:10:54;;;;;;;6.65;3.38;;;27.20;68.30;;;;;;5089673;28;20277;-76
2022/07/28 05:13:23;;;;;;;3.92;2.60;;;27.30;68.20;;;;;;5092007;28;20243;-76
2022/07/28 05:15:57;;;;;;;3.67;2.88;;;27.40;68.10;;;;;;5092439;28;20208;-73
2022/07/28 05:18:26;;;;;;;6.45;2.58;;;27.40;68.20;;;;;;5088432;28;20189;-74
2022/07/28 05:20:54;;;;;;;5.05;3.28;;;27.40;68.10;;;;;;5075749;28;20679;-75
2022/07/28 05:23:23;;;;;;;5.20;3.25;;;27.50;68.00;;;;;;5086113;28;20190;-74
2022/07/28 05:25:51;;;;;;;3.95;2.67;;;27.60;68.00;;;;;;5084730;28;20204;-73
2022/07/28 05:28:20;;;;;;;7.82;3.47;;;27.60;67.80;;;;;;5090082;28;20193;-73
2022/07/28 05:30:48;;;;;;;4.60;2.85;;;27.60;67.70;;;;;;5099454;28;20699;-74
2022/07/28 05:33:18;;;;;;;4.28;2.55;;;27.70;67.50;;;;;;5095653;28;20201;-76
2022/07/28 05:35:52;;;;;;;4.75;2.75;;;27.70;67.40;;;;;;5080532;28;20204;-77
2022/07/28 05:38:21;;;;;;;7.05;3.85;;;27.70;67.20;;;;;;5078253;28;20199;-78
2022/07/28 05:40:50;;;;;;;5.55;3.33;;;27.80;67.10;;;;;;5104057;28;20748;-77
2022/07/28 05:43:19;;;;;;;6.97;3.47;;;27.90;66.90;;;;;;5088444;28;20182;-76
2022/07/28 05:45:48;;;;;;;5.93;3.38;;;27.90;66.90;;;;;;5081828;28;20189;-77
2022/07/28 05:48:19;;;;;;;4.63;2.97;;;28.00;66.90;;;;;;5073429;28;20660;-76
2022/07/28 05:50:48;;;;;;;4.03;2.85;;;28.10;66.90;;;;;;5082116;28;20186;-77
2022/07/28 05:53:16;;;;;;;5.70;2.78;;;28.10;66.60;;;;;;5079761;28;20285;-76
2022/07/28 05:55:45;;;;;;;8.00;2.90;;;28.10;66.40;;;;;;5083839;28;20220;-76
2022/07/28 05:58:29;;;;;;;7.00;3.60;;;28.10;66.40;;;;;;5088761;28;20189;-76
2022/07/28 06:00:59;;;;;;;5.95;2.97;;;28.20;66.50;;;;;;5092150;28;20686;-76
2022/07/28 06:03:31;;;;;;;5.30;3.17;;;28.20;66.30;;;;;;5077963;28;20190;-76
2022/07/28 06:05:59;;;;;;;8.38;3.22;;;28.20;66.20;;;;;;5089361;28;20740;-77
2022/07/28 06:08:44;;;;;;;4.85;3.00;;;28.20;66.20;;;;;;5086549;28;20190;-77
2022/07/28 06:11:15;;;;;;;7.43;3.50;;;28.20;66.00;;;;;;5094823;28;20702;-76
2022/07/28 06:13:51;;;;;;;5.05;3.42;;;28.20;65.90;;;;;;5091921;28;20195;-75
2022/07/28 06:16:21;;;;;;;5.30;2.88;;;28.30;66.20;;;;;;5099991;28;20249;-78
2022/07/28 06:18:52;;;;;;;5.65;3.10;;;28.30;66.40;;;;;;5076864;28;20190;-79
2022/07/28 06:21:23;;;;;;;7.45;3.25;;;28.30;66.30;;;;;;5097424;28;20689;-78
2022/07/28 06:23:51;;;;;;;7.30;3.08;;;28.40;66.10;;;;;;5092190;28;20258;-76
2022/07/28 06:26:21;;;;;;;5.85;2.92;;;28.40;66.20;;;;;;5084083;28;20194;-77
2022/07/28 06:28:51;;;;;;;8.73;3.22;;;28.40;66.30;;;;;;5084116;28;20186;-77
2022/07/28 06:31:19;;;;;;;5.75;2.75;;;28.50;66.30;;;;;;5106982;28;22686;-76
2022/07/28 06:33:48;;;;;;;5.05;3.10;;;28.50;66.20;;;;;;5104881;28;20184;-77
2022/07/28 06:36:18;;;;;;;10.38;3.50;;;28.60;66.00;;;;;;5085129;28;20601;-77
2022/07/28 06:38:46;;;;;;;6.90;3.20;;;28.60;66.00;;;;;;5083208;28;20706;-77
2022/07/28 06:41:15;;;;;;;5.72;3.22;;;28.60;65.80;;;;;;5080274;28;20208;-76
2022/07/28 06:43:43;;;;;;;4.40;2.95;;;28.70;65.90;;;;;;5088219;28;20185;-78
2022/07/28 06:46:17;;;;;;;5.65;3.00;;;28.70;66.80;;;;;;5094474;28;20658;-75
2022/07/28 06:48:46;;;;;;;6.82;3.10;;;28.80;65.80;;;;;;5094057;28;20182;-77
2022/07/28 06:51:17;;;;;;;7.72;2.95;;;28.80;65.80;;;;;;5086962;28;20690;-75
2022/07/28 06:53:48;;;;;;;5.05;2.72;;;28.80;65.60;;;;;;5083070;28;20228;-76
2022/07/28 06:56:19;;;;;;;3.95;2.85;;;28.90;65.40;;;;;;5099408;28;20257;-79
2022/07/28 06:58:48;;;;;;;6.28;3.03;;;28.90;65.20;;;;;;5084224;28;20220;-77
2022/07/28 07:01:19;;;;;;;6.78;3.13;;;28.90;65.10;;;;;;5082651;28;20225;-78
2022/07/28 07:03:47;;;;;;;5.28;3.10;;;28.90;64.90;;;;;;5090620;28;20190;-77
2022/07/28 07:06:19;;;;;;;5.35;2.92;;;28.90;64.80;;;;;;5083315;28;20684;-76
2022/07/28 07:08:49;;;;;;;8.18;3.10;;;28.90;64.80;;;;;;5082660;28;20220;-74
2022/07/28 07:11:17;;;;;;;6.97;3.15;;;29.00;64.90;;;;;;5085082;28;20202;-75
2022/07/28 07:13:46;;;;;;;10.25;2.88;;;29.00;64.90;;;;;;5079882;28;20196;-76
2022/07/28 07:16:14;;;;;;;4.45;3.10;;;29.00;64.80;;;;;;5073310;28;20422;-76
2022/07/28 07:18:43;;;;;;;5.82;3.13;;;29.00;64.60;;;;;;5083837;28;20193;-74
2022/07/28 07:21:11;;;;;;;4.40;2.75;;;29.00;64.60;;;;;;5104395;28;20229;-77
2022/07/28 07:23:40;;;;;;;3.53;2.58;;;29.10;64.70;;;;;;5083894;28;20821;-75
2022/07/28 07:26:09;;;;;;;5.45;2.72;;;29.00;64.50;;;;;;5091142;28;20201;-77
2022/07/28 07:28:40;;;;;;;4.97;2.95;;;29.10;64.70;;;;;;5105778;28;20193;-76
2022/07/28 07:31:08;;;;;;;4.30;2.75;;;29.10;64.60;;;;;;5087985;28;20189;-76
2022/07/28 07:33:37;;;;;;;6.20;3.03;;;29.10;64.70;;;;;;5082407;28;20611;-75
2022/07/28 07:36:06;;;;;;;9.27;3.00;;;29.10;64.50;;;;;;5087232;28;20223;-74
2022/07/28 07:38:34;;;;;;;7.50;2.85;;;29.20;64.40;;;;;;5104036;28;20201;-75
2022/07/28 07:41:03;;;;;;;5.18;3.25;;;29.20;64.40;;;;;;5086252;28;20226;-74
2022/07/28 07:43:32;;;;;;;7.93;2.70;;;29.20;64.20;;;;;;5087313;28;20194;-76
2022/07/28 07:46:01;;;;;;;5.55;2.70;;;29.30;64.40;;;;;;5085515;28;20193;-74
2022/07/28 07:48:29;;;;;;;4.70;2.80;;;29.30;64.40;;;;;;5089322;28;20680;-73
2022/07/28 07:50:58;;;;;;;6.88;3.03;;;29.40;64.40;;;;;;5091284;28;20750;-75
2022/07/28 07:53:26;;;;;;;5.80;3.30;;;29.40;64.20;;;;;;5095181;28;20191;-74
2022/07/28 07:55:54;;;;;;;4.00;2.80;;;29.40;65.00;;;;;;5097875;28;20197;-74
2022/07/28 07:58:23;;;;;;;5.43;3.00;;;29.40;64.00;;;;;;5088382;28;20685;-74
2022/07/28 08:00:53;;;;;;;5.55;3.20;;;29.50;64.00;;;;;;5088881;28;20209;-74
2022/07/28 08:03:22;;;;;;;5.15;3.00;;;29.50;64.00;;;;;;5089961;28;20208;-74
2022/07/28 08:05:55;;;;;;;3.92;2.90;;;29.50;63.80;;;;;;5073206;28;20229;-74
2022/07/28 08:08:24;;;;;;;3.95;2.67;;;29.50;63.80;;;;;;5093337;28;20272;-74
2022/07/28 08:10:53;;;;;;;9.32;3.05;;;29.60;63.80;;;;;;5101851;28;20876;-75
2022/07/28 08:13:22;;;;;;;5.03;3.50;;;29.60;63.80;;;;;;5082284;28;20697;-74
2022/07/28 08:15:50;;;;;;;5.15;3.03;;;29.70;63.90;;;;;;5073046;28;20198;-74
2022/07/28 08:18:20;;;;;;;6.97;3.13;;;29.60;63.60;;;;;;5085276;28;20186;-75
2022/07/28 08:20:49;;;;;;;14.43;4.85;;;29.70;63.60;;;;;;5086267;28;20256;-74
2022/07/28 08:23:17;;;;;;;6.13;3.25;;;29.70;63.80;;;;;;5094485;28;20207;-75
2022/07/28 08:25:53;;;;;;;6.72;3.20;;;29.70;63.80;;;;;;5085963;28;20189;-74
2022/07/28 08:28:22;;;;;;;5.00;2.85;;;29.80;63.80;;;;;;5083763;28;20193;-74
2022/07/28 08:30:51;;;;;;;6.47;2.78;;;29.90;63.80;;;;;;5082125;28;20658;-73
2022/07/28 08:33:21;;;;;;;6.30;3.33;;;29.90;63.70;;;;;;5097646;28;20597;-73
2022/07/28 08:35:49;;;;;;;5.53;2.65;;;29.90;63.40;;;;;;5086020;28;20185;-74
2022/07/28 08:38:18;;;;;;;8.90;3.13;;;29.90;63.40;;;;;;5084399;28;20717;-73
2022/07/28 08:40:50;;;;;;;5.97;2.90;;;29.90;63.30;;;;;;5087630;28;20691;-73
2022/07/28 08:43:30;;;;;;;6.68;2.83;;;30.00;63.20;;;;;;5089034;28;20668;-77
2022/07/28 08:46:00;;;;;;;6.32;3.63;;;30.00;63.20;;;;;;5080102;28;20209;-76
2022/07/28 08:48:32;;;;;;;4.95;2.72;;;29.90;63.10;;;;;;5086480;28;20295;-76
2022/07/28 08:51:03;;;;;;;6.35;3.35;;;30.00;63.30;;;;;;5085284;28;20655;-73
2022/07/28 08:53:34;;;;;;;6.07;3.03;;;30.00;63.30;;;;;;5089954;28;20200;-75
2022/07/28 08:56:05;;;;;;;6.93;3.05;;;29.90;63.00;;;;;;5089109;28;20201;-74
2022/07/28 08:58:36;;;;;;;9.07;3.38;;;29.90;62.80;;;;;;5087214;28;20389;-74
2022/07/28 09:01:07;;;;;;;4.05;2.75;;;29.90;62.80;;;;;;5085970;28;20479;-76
2022/07/28 09:03:37;;;;;;;4.97;3.53;;;29.90;62.80;;;;;;5088987;28;20202;-76
2022/07/28 09:06:07;;;;;;;6.30;3.10;;;29.90;62.80;;;;;;5084595;28;20278;-74
2022/07/28 09:08:35;;;;;;;13.43;3.72;;;29.90;62.80;;;;;;5088050;28;20599;-77
2022/07/28 09:11:05;;;;;;;9.88;3.05;;;29.90;62.90;;;;;;5095927;28;20694;-75
2022/07/28 09:13:34;;;;;;;6.75;3.05;;;29.90;63.00;;;;;;5103528;28;20220;-75
2022/07/28 09:16:06;;;;;;;4.35;2.88;;;29.90;62.80;;;;;;5091103;28;21285;-74
2022/07/28 09:18:36;;;;;;;5.55;2.75;;;29.90;62.60;;;;;;5094668;28;20296;-76
2022/07/28 09:21:04;;;;;;;4.18;2.70;;;29.80;62.30;;;;;;5098083;28;20186;-74
2022/07/28 09:23:44;;;;;;;5.38;2.75;;;29.80;62.20;;;;;;5102921;28;20216;-76
2022/07/28 09:26:13;;;;;;;4.20;2.70;;;29.80;62.20;;;;;;5089390;28;20185;-75
2022/07/28 09:28:49;;;;;;;6.28;3.05;;;29.80;62.30;;;;;;5077292;28;20205;-75
2022/07/28 09:31:18;;;;;;;7.05;3.08;;;29.90;62.40;;;;;;5096024;28;20193;-75
2022/07/28 09:33:55;;;;;;;4.68;2.78;;;29.90;62.30;;;;;;5078141;28;20193;-76
2022/07/28 09:36:24;;;;;;;4.25;3.08;;;29.90;62.20;;;;;;5083314;28;20189;-78
2022/07/28 09:38:54;;;;;;;4.43;2.67;;;30.00;62.20;;;;;;5090635;28;20197;-76
2022/07/28 09:41:23;;;;;;;4.40;2.63;;;30.00;62.20;;;;;;5083832;28;20227;-76
2022/07/28 09:43:52;;;;;;;6.63;2.95;;;30.00;62.20;;;;;;5103616;28;20204;-77
2022/07/28 09:46:24;;;;;;;5.18;2.75;;;30.10;62.30;;;;;;5102068;28;20194;-76
2022/07/28 09:48:59;;;;;;;5.40;3.15;;;30.20;62.30;;;;;;5087879;28;20336;-77
2022/07/28 09:51:30;;;;;;;4.45;2.92;;;30.40;62.50;;;;;;5085983;28;20225;-76
2022/07/28 09:54:08;;;;;;;4.32;2.90;;;30.50;62.30;;;;;;5086274;28;20207;-76
2022/07/28 09:56:38;;;;;;;5.93;3.35;;;30.60;62.20;;;;;;5097337;28;20841;-77
2022/07/28 09:59:07;;;;;;;4.07;2.85;;;30.70;61.90;;;;;;5083160;28;20206;-78
2022/07/28 10:01:51;;;;;;;6.18;3.15;;;30.90;61.70;;;;;;5082481;28;20289;-77
2022/07/28 10:04:33;;;;;;;3.63;2.83;;;31.00;61.70;;;;;;5082966;28;20596;-76
2022/07/28 10:07:04;;;;;;;4.13;2.85;;;31.00;61.70;;;;;;5075982;28;20187;-76
2022/07/28 10:09:33;;;;;;;5.78;3.22;;;31.10;61.30;;;;;;5094964;28;20196;-78
2022/07/28 10:12:19;;;;;;;8.57;2.70;;;31.20;60.90;;;;;;5081137;28;20193;-76
2022/07/28 10:14:49;;;;;;;7.15;3.35;;;31.30;60.60;;;;;;5085761;28;20285;-76
2022/07/28 10:17:29;;;;;;;4.85;3.38;;;31.40;60.40;;;;;;5083050;28;20218;-82
2022/07/28 10:20:01;;;;;;;3.95;2.70;;;31.50;60.20;;;;;;5079094;28;20198;-77
2022/07/28 10:22:33;;;;;;;5.20;3.30;;;31.50;59.70;;;;;;5081719;28;20383;-77
2022/07/28 10:25:10;;;;;;;5.20;2.63;;;31.60;59.60;;;;;;5089744;28;20702;-77
2022/07/28 10:27:41;;;;;;;6.88;2.72;;;31.70;59.20;;;;;;5098710;28;20625;-76
2022/07/28 10:30:12;;;;;;;4.30;2.75;;;31.80;59.20;;;;;;5081685;28;20189;-77
2022/07/28 10:32:42;;;;;;;5.63;2.95;;;31.80;59.10;;;;;;5084051;28;20201;-77
2022/07/28 10:35:14;;;;;;;3.90;2.60;;;31.90;59.10;;;;;;5086671;28;20189;-76
2022/07/28 10:37:51;;;;;;;3.95;3.03;;;31.90;59.20;;;;;;5082818;28;20597;-77
2022/07/28 10:40:26;;;;;;;5.30;3.03;;;31.90;58.50;;;;;;5096026;28;20231;-77
2022/07/28 10:42:55;;;;;;;4.53;2.90;;;32.00;58.60;;;;;;5088305;28;20552;-77
2022/07/28 10:45:24;;;;;;;6.38;2.90;;;32.00;58.40;;;;;;5085632;28;20194;-77
2022/07/28 10:48:13;;;;;;;5.45;2.75;;;32.00;58.10;;;;;;5098847;28;20587;-77
2022/07/28 10:50:44;;;;;;;4.70;2.70;;;32.00;57.70;;;;;;5099705;28;20202;-76
2022/07/28 10:53:23;;;;;;;4.20;3.05;;;32.00;57.60;;;;;;5085323;28;20223;-77
2022/07/28 10:56:00;;;;;;;5.10;2.65;;;32.10;57.80;;;;;;5091547;28;20609;-77
2022/07/28 10:58:38;;;;;;;3.65;2.72;;;32.20;57.50;;;;;;5092241;28;20204;-78
2022/07/28 11:01:09;;;;;;;4.03;2.45;;;32.30;57.40;;;;;;5078628;28;20193;-79
2022/07/28 11:03:53;;;;;;;8.10;2.35;;;32.50;57.60;;;;;;5079302;28;20268;-78
2022/07/28 11:06:33;;;;;;;5.28;3.03;;;32.50;57.10;;;;;;5099979;28;20193;-78
2022/07/28 11:09:21;;;;;;;5.78;2.80;;;32.60;57.20;;;;;;5101686;28;20549;-77
2022/07/28 11:11:51;;;;;;;4.60;2.53;;;32.70;57.40;;;;;;5085433;28;20201;-77
2022/07/28 11:14:35;;;;;;;5.78;2.85;;;32.70;57.20;;;;;;5083711;28;20675;-77
2022/07/28 11:17:23;;;;;;;5.80;2.88;;;32.80;56.80;;;;;;5072073;28;20197;-77
2022/07/28 11:20:01;;;;;;;6.78;3.00;;;32.90;56.50;;;;;;5085782;28;20821;-77
2022/07/28 11:22:51;;;;;;;6.75;3.08;;;33.00;56.30;;;;;;5090370;28;20256;-77
2022/07/28 11:25:20;;;;;;;6.07;3.10;;;33.00;56.30;;;;;;5089019;28;20204;-75
2022/07/28 11:28:02;;;;;;;7.45;3.25;;;33.00;56.20;;;;;;5087709;28;20198;-76
2022/07/28 11:30:53;;;;;;;4.40;2.78;;;32.90;55.80;;;;;;5052002;28;20507;-76
2022/07/28 11:33:23;;;;;;;6.03;2.90;;;32.80;55.90;;;;;;5066187;28;21153;-76
2022/07/28 11:35:56;;;;;;;4.85;2.88;;;32.80;56.00;;;;;;5087422;28;20190;-76
2022/07/28 11:38:26;;;;;;;4.68;2.80;;;32.80;56.00;;;;;;5086799;28;20254;-76
2022/07/28 11:40:56;;;;;;;5.80;2.25;;;32.80;56.00;;;;;;5085618;28;20212;-76
2022/07/28 11:43:35;;;;;;;3.95;2.65;;;32.80;56.00;;;;;;5077581;28;20316;-77
2022/07/28 11:46:23;;;;;;;9.43;2.70;;;32.70;56.00;;;;;;5076615;28;20242;-77
2022/07/28 11:49:23;;;;;;;4.93;2.88;;;32.70;56.30;;;;;;5074742;28;20194;-77
2022/07/28 11:52:22;;;;;;;9.43;2.92;;;32.70;56.40;;;;;;5082376;28;20280;-76
2022/07/28 11:54:55;;;;;;;4.65;2.78;;;32.60;56.10;;;;;;5033413;28;20296;-77
2022/07/28 11:57:25;;;;;;;3.63;2.55;;;32.60;56.10;;;;;;5093380;28;20186;-77
2022/07/28 12:00:00;;;;;;;7.18;2.72;;;32.60;56.10;;;;;;5084417;28;20276;-76
2022/07/28 12:02:30;;;;;;;4.95;2.65;;;32.50;56.30;;;;;;5082726;28;20194;-78
2022/07/28 12:05:02;;;;;;;3.97;2.90;;;32.60;56.50;;;;;;5079372;28;20225;-75
2022/07/28 12:07:36;;;;;;;5.05;2.33;;;32.60;56.50;;;;;;5082871;28;21120;-77
2022/07/28 12:10:33;;;;;;;6.60;3.17;;;32.60;56.40;;;;;;5081984;28;20577;-77
2022/07/28 12:13:27;;;;;;;7.25;3.17;;;32.60;56.60;;;;;;5081611;28;20193;-76
2022/07/28 12:15:56;;;;;;;7.88;2.88;;;32.60;56.60;;;;;;5086576;28;20229;-75
2022/07/28 12:18:24;;;;;;;5.18;3.35;;;32.60;56.50;;;;;;5086620;28;20726;-77
2022/07/28 12:20:53;;;;;;;5.95;2.92;;;32.70;56.80;;;;;;5089816;28;20709;-77
2022/07/28 12:23:32;;;;;;;4.68;2.85;;;32.70;57.00;;;;;;5089192;28;20216;-76
2022/07/28 12:26:30;;;;;;;7.13;3.08;;;32.80;57.10;;;;;;5094238;28;20806;-76
2022/07/28 12:28:59;;;;;;;6.07;2.88;;;32.90;56.90;;;;;;5091028;28;20190;-76
2022/07/28 12:31:31;;;;;;;7.65;3.45;;;33.00;56.40;;;;;;5089180;28;20264;-76
2022/07/28 12:34:00;;;;;;;7.50;2.83;;;33.10;56.10;;;;;;5093603;28;20698;-76
2022/07/28 12:36:29;;;;;;;4.22;2.70;;;33.10;56.00;;;;;;5091533;28;20220;-78
2022/07/28 12:38:59;;;;;;;5.28;2.72;;;33.30;56.00;;;;;;5085468;28;20220;-77
2022/07/28 12:41:33;;;;;;;4.10;2.42;;;33.30;56.00;;;;;;5087955;28;20188;-76
2022/07/28 12:44:05;;;;;;;4.70;2.70;;;33.50;55.10;;;;;;5087616;28;20213;-76
2022/07/28 12:46:33;;;;;;;4.57;2.67;;;33.50;54.90;;;;;;5093725;28;20733;-79
2022/07/28 12:49:02;;;;;;;5.70;3.13;;;33.50;55.20;;;;;;5081770;28;20701;-76
2022/07/28 12:51:33;;;;;;;4.68;2.90;;;33.60;55.20;;;;;;5095162;28;20272;-77
2022/07/28 12:54:02;;;;;;;3.88;2.75;;;33.60;55.10;;;;;;5082008;28;20194;-75
2022/07/28 12:56:43;;;;;;;4.55;3.00;;;33.70;55.10;;;;;;5082937;28;20193;-77
2022/07/28 12:59:12;;;;;;;4.70;3.30;;;33.80;55.20;;;;;;5082259;28;20190;-78
2022/07/28 13:01:51;;;;;;;5.13;2.85;;;33.80;54.90;;;;;;5092335;28;20189;-76
2022/07/28 13:04:38;;;;;;;4.72;2.80;;;33.80;54.70;;;;;;5085692;28;20212;-79
2022/07/28 13:07:09;;;;;;;5.85;3.05;;;33.80;54.50;;;;;;5092880;28;20197;-77
2022/07/28 13:09:44;;;;;;;5.72;3.30;;;33.90;54.70;;;;;;5086265;28;20186;-76
2022/07/28 13:12:19;;;;;;;7.25;2.83;;;33.90;54.80;;;;;;5086864;28;20704;-77
2022/07/28 13:14:51;;;;;;;4.22;2.97;;;34.00;54.70;;;;;;5093545;28;20184;-76
2022/07/28 13:17:21;;;;;;;5.35;2.30;;;34.00;54.30;;;;;;5088717;28;20533;-77
2022/07/28 13:19:50;;;;;;;6.53;2.80;;;34.10;54.50;;;;;;5085395;28;20593;-77
2022/07/28 13:22:29;;;;;;;3.20;2.40;;;34.10;53.50;;;;;;5096247;28;20197;-77
2022/07/28 13:24:58;;;;;;;4.47;2.42;;;34.00;53.50;;;;;;5078671;28;20214;-77